createdAt,value
2023-01-29T00:00:30.137Z,62.90
2023-01-29T00:04:33.185Z,62.80
2023-01-29T00:08:37.530Z,62.80
2023-01-29T00:12:40.367Z,62.90
2023-01-29T00:16:43.486Z,62.90
2023-01-29T00:20:46.472Z,63.00
2023-01-29T00:24:49.174Z,63.00
2023-01-29T00:28:51.951Z,62.90
2023-01-29T00:32:54.907Z,63.00
2023-01-29T00:37:05.005Z,63.00
2023-01-29T00:41:27.080Z,63.00
2023-01-29T00:45:30.470Z,63.00
2023-01-29T00:49:33.331Z,62.90
2023-01-29T00:53:42.611Z,62.90
2023-01-29T00:57:45.724Z,62.90
2023-01-29T01:02:23.801Z,62.90
2023-01-29T01:06:26.680Z,62.90
2023-01-29T01:10:32.309Z,62.90
2023-01-29T01:14:37.847Z,62.90
2023-01-29T01:18:41.477Z,62.80
2023-01-29T01:22:44.492Z,62.80
2023-01-29T01:26:47.229Z,62.80
2023-01-29T01:30:50.171Z,62.70
2023-01-29T01:34:53.795Z,62.70
2023-01-29T01:38:56.792Z,62.80
2023-01-29T01:43:01.533Z,62.80
2023-01-29T01:47:04.416Z,62.80
2023-01-29T01:51:07.405Z,62.80
2023-01-29T01:55:13.373Z,62.90
2023-01-29T01:59:18.218Z,62.90
2023-01-29T02:03:42.871Z,62.90
2023-01-29T02:08:08.979Z,63.00
2023-01-29T02:12:14.250Z,63.00
2023-01-29T02:16:17.093Z,63.10
2023-01-29T02:20:26.690Z,63.00
2023-01-29T02:25:10.072Z,63.20
2023-01-29T02:29:27.254Z,63.20
2023-01-29T02:33:41.144Z,63.20
2023-01-29T02:38:09.516Z,63.20
2023-01-29T02:42:35.899Z,63.30
2023-01-29T02:47:00.438Z,63.30
2023-01-29T02:51:14.225Z,63.30
2023-01-29T02:55:23.280Z,63.10
2023-01-29T02:59:33.206Z,63.10
2023-01-29T03:03:46.973Z,63.00
2023-01-29T03:07:56.745Z,63.00
2023-01-29T03:12:28.717Z,63.00
2023-01-29T03:16:51.161Z,63.10
2023-01-29T03:21:27.398Z,63.10
2023-01-29T03:25:49.342Z,63.20
2023-01-29T03:30:14.946Z,63.10
2023-01-29T03:34:34.846Z,63.20
2023-01-29T03:38:38.557Z,63.30
2023-01-29T03:43:08.475Z,63.20
2023-01-29T03:47:18.617Z,63.20
2023-01-29T03:52:00.241Z,63.30
2023-01-29T03:56:03.771Z,63.40
2023-01-29T04:00:21.536Z,63.40
2023-01-29T04:04:36.995Z,63.40
2023-01-29T04:08:50.539Z,63.40
2023-01-29T04:13:06.312Z,63.60
2023-01-29T04:17:20.653Z,63.70
2023-01-29T04:21:39.713Z,63.70
2023-01-29T04:25:47.629Z,63.70
2023-01-29T04:30:14.992Z,63.80
2023-01-29T04:35:01.530Z,63.80
2023-01-29T04:39:06.062Z,63.90
2023-01-29T04:43:48.040Z,63.90
2023-01-29T04:48:13.093Z,64.00
2023-01-29T04:52:42.474Z,64.10
2023-01-29T04:57:01.296Z,64.00
2023-01-29T05:01:06.869Z,63.90
2023-01-29T05:05:11.582Z,63.90
2023-01-29T05:09:17.531Z,63.90
2023-01-29T05:13:23.015Z,63.90
2023-01-29T05:17:25.863Z,63.80
2023-01-29T05:21:28.656Z,63.80
2023-01-29T05:25:33.745Z,63.80
2023-01-29T05:29:36.785Z,63.80
2023-01-29T05:33:39.567Z,63.80
2023-01-29T05:37:42.576Z,63.80
2023-01-29T05:41:45.444Z,63.80
2023-01-29T05:45:59.726Z,63.80
2023-01-29T05:50:02.797Z,63.90
2023-01-29T05:54:05.767Z,63.90
2023-01-29T05:58:08.779Z,63.90
2023-01-29T06:02:11.768Z,63.90
2023-01-29T06:06:15.337Z,64.00
2023-01-29T06:10:19.389Z,64.00
2023-01-29T06:14:22.489Z,64.00
2023-01-29T06:18:25.760Z,64.00
2023-01-29T06:22:28.772Z,63.90
2023-01-29T06:26:31.557Z,63.90
2023-01-29T06:30:34.454Z,63.90
2023-01-29T06:34:39.456Z,63.80
2023-01-29T06:38:42.300Z,63.80
2023-01-29T06:42:46.176Z,63.80
2023-01-29T06:46:49.007Z,63.70
2023-01-29T06:50:55.163Z,63.60
2023-01-29T06:54:58.057Z,63.60
2023-01-29T06:59:00.996Z,63.50
2023-01-29T07:03:04.510Z,63.50
2023-01-29T07:07:13.626Z,63.50
2023-01-29T07:11:16.539Z,63.40
2023-01-29T07:15:21.345Z,63.40
2023-01-29T07:19:24.062Z,63.30
2023-01-29T07:23:27.287Z,63.30
2023-01-29T07:27:30.223Z,63.20
2023-01-29T07:31:33.546Z,63.20
2023-01-29T07:35:39.476Z,63.10
2023-01-29T07:39:42.348Z,63.00
2023-01-29T07:43:45.116Z,63.00
2023-01-29T07:47:53.923Z,62.80
2023-01-29T07:51:56.777Z,62.50
2023-01-29T07:55:59.748Z,62.30
2023-01-29T08:00:02.703Z,62.10
2023-01-29T08:04:15.484Z,61.80
2023-01-29T08:08:19.497Z,61.50
2023-01-29T08:12:22.296Z,61.30
2023-01-29T08:16:25.374Z,61.00
2023-01-29T08:20:28.561Z,60.70
2023-01-29T08:24:41.756Z,60.40
2023-01-29T08:28:54.261Z,60.00
2023-01-29T08:32:57.186Z,60.10
2023-01-29T08:37:00.121Z,59.90
2023-01-29T08:41:03.504Z,59.70
2023-01-29T08:45:06.941Z,59.20
2023-01-29T08:49:09.910Z,59.10
2023-01-29T08:53:12.951Z,58.80
2023-01-29T08:57:15.920Z,58.30
2023-01-29T09:01:18.809Z,58.10
2023-01-29T09:05:21.539Z,57.70
2023-01-29T09:09:24.448Z,57.40
2023-01-29T09:13:27.307Z,57.20
2023-01-29T09:17:30.025Z,56.40
2023-01-29T09:21:32.704Z,56.40
2023-01-29T09:25:36.069Z,56.30
2023-01-29T09:29:39.146Z,56.40
2023-01-29T09:33:42.095Z,55.80
2023-01-29T09:37:48.572Z,55.70
2023-01-29T09:42:04.575Z,55.10
2023-01-29T09:46:32.239Z,54.70
2023-01-29T09:50:40.227Z,54.20
2023-01-29T09:54:52.066Z,54.20
2023-01-29T09:59:00.641Z,54.30
2023-01-29T10:03:15.647Z,53.70
2023-01-29T10:07:21.857Z,52.30
2023-01-29T10:11:46.484Z,52.50
2023-01-29T10:16:02.222Z,52.30
2023-01-29T10:20:20.653Z,52.40
2023-01-29T10:24:35.351Z,52.40
2023-01-29T10:28:46.746Z,52.20
2023-01-29T10:32:50.699Z,52.10
2023-01-29T10:36:57.144Z,52.00
2023-01-29T10:41:17.650Z,51.60
2023-01-29T10:45:45.549Z,51.20
2023-01-29T10:50:36.023Z,51.20
2023-01-29T10:55:11.049Z,51.30
2023-01-29T10:59:26.535Z,50.20
2023-01-29T11:03:31.834Z,50.10
2023-01-29T11:07:34.867Z,49.50
2023-01-29T11:11:46.223Z,49.40
2023-01-29T11:15:52.785Z,49.30
2023-01-29T11:19:56.036Z,49.00
2023-01-29T11:24:17.807Z,48.40
2023-01-29T11:28:44.518Z,48.30
2023-01-29T11:32:52.753Z,47.90
2023-01-29T11:37:01.216Z,47.80
2023-01-29T11:41:18.364Z,47.40
2023-01-29T11:45:32.798Z,46.90
2023-01-29T11:49:36.026Z,47.00
2023-01-29T11:53:43.223Z,47.00
2023-01-29T11:58:12.415Z,46.50
2023-01-29T12:02:28.050Z,46.70
2023-01-29T12:06:42.906Z,46.20
2023-01-29T12:10:45.850Z,46.40
2023-01-29T12:15:04.765Z,46.50
2023-01-29T12:19:55.794Z,46.80
2023-01-29T12:24:25.244Z,47.30
2023-01-29T12:28:49.809Z,47.40
2023-01-29T12:33:05.178Z,47.80
2023-01-29T12:37:33.782Z,47.90
2023-01-29T12:41:39.770Z,47.50
2023-01-29T12:45:44.839Z,47.70
2023-01-29T12:49:53.159Z,47.90
2023-01-29T12:54:10.548Z,47.80
2023-01-29T12:58:22.739Z,46.90
2023-01-29T13:02:44.785Z,47.40
2023-01-29T13:06:55.578Z,46.80
2023-01-29T13:11:02.163Z,46.80
2023-01-29T13:15:20.923Z,46.60
2023-01-29T13:19:41.070Z,46.30
2023-01-29T13:23:51.520Z,46.60
2023-01-29T13:27:54.479Z,47.00
2023-01-29T13:31:59.760Z,46.80
2023-01-29T13:36:02.787Z,46.70
2023-01-29T13:40:07.596Z,46.80
2023-01-29T13:44:32.394Z,46.70
2023-01-29T13:48:52.465Z,47.10
2023-01-29T13:53:02.259Z,47.10
2023-01-29T13:57:05.150Z,47.30
2023-01-29T14:01:08.023Z,47.60
2023-01-29T14:05:31.214Z,47.60
2023-01-29T14:09:37.042Z,48.40
2023-01-29T14:13:42.029Z,48.20
2023-01-29T14:18:00.048Z,48.40
2023-01-29T14:22:02.976Z,48.40
2023-01-29T14:26:20.046Z,48.30
2023-01-29T14:30:24.163Z,48.30
2023-01-29T14:34:44.159Z,48.70
2023-01-29T14:38:52.558Z,49.10
2023-01-29T14:43:04.085Z,49.10
2023-01-29T14:47:27.011Z,49.00
2023-01-29T14:51:36.795Z,48.90
2023-01-29T14:55:45.565Z,49.10
2023-01-29T15:00:21.435Z,49.00
2023-01-29T15:04:29.066Z,49.00
2023-01-29T15:08:44.044Z,49.10
2023-01-29T15:12:56.177Z,49.30
2023-01-29T15:17:27.669Z,49.30
2023-01-29T15:21:33.847Z,49.50
2023-01-29T15:25:51.560Z,49.60
2023-01-29T15:30:00.235Z,49.50
2023-01-29T15:34:07.738Z,49.70
2023-01-29T15:38:19.779Z,49.70
2023-01-29T15:42:25.838Z,49.90
2023-01-29T15:46:33.756Z,50.10
2023-01-29T15:50:41.293Z,50.20
2023-01-29T15:54:44.514Z,50.40
2023-01-29T15:58:49.567Z,50.50
2023-01-29T16:02:52.472Z,50.80
2023-01-29T16:06:56.704Z,50.80
2023-01-29T16:11:03.329Z,51.10
2023-01-29T16:15:07.186Z,51.10
2023-01-29T16:19:24.095Z,51.20
2023-01-29T16:23:35.411Z,51.40
2023-01-29T16:27:38.585Z,51.60
2023-01-29T16:31:44.647Z,51.80
2023-01-29T16:35:52.116Z,52.10
2023-01-29T16:39:55.071Z,52.30
2023-01-29T16:44:25.832Z,52.40
2023-01-29T16:48:33.739Z,52.70
2023-01-29T16:52:36.955Z,52.90
2023-01-29T16:56:40.456Z,53.00
2023-01-29T17:01:14.598Z,53.20
2023-01-29T17:05:28.366Z,53.50
2023-01-29T17:09:40.503Z,53.80
2023-01-29T17:14:07.810Z,54.10
2023-01-29T17:18:31.352Z,54.90
2023-01-29T17:22:36.887Z,55.30
2023-01-29T17:26:40.682Z,55.70
2023-01-29T17:30:53.335Z,55.90
2023-01-29T17:35:00.558Z,55.80
2023-01-29T17:39:17.163Z,56.10
2023-01-29T17:43:20.147Z,56.50
2023-01-29T17:47:23.100Z,56.50
2023-01-29T17:51:26.276Z,56.80
2023-01-29T17:55:29.264Z,56.90
2023-01-29T17:59:34.166Z,57.10
2023-01-29T18:03:37.219Z,57.30
2023-01-29T18:07:42.722Z,57.50
2023-01-29T18:11:46.095Z,57.70
2023-01-29T18:15:49.069Z,57.80
2023-01-29T18:19:51.970Z,57.90
2023-01-29T18:23:55.117Z,58.20
2023-01-29T18:27:58.053Z,58.30
2023-01-29T18:32:08.203Z,58.30
2023-01-29T18:36:11.924Z,58.70
2023-01-29T18:40:19.310Z,58.70
2023-01-29T18:44:22.852Z,58.80
2023-01-29T18:48:26.036Z,59.10
2023-01-29T18:52:28.913Z,59.40
2023-01-29T18:56:33.274Z,59.50
2023-01-29T19:00:36.727Z,59.50
2023-01-29T19:04:40.302Z,59.30
2023-01-29T19:08:44.013Z,59.40
2023-01-29T19:12:46.826Z,59.40
2023-01-29T19:16:50.968Z,59.30
2023-01-29T19:20:54.404Z,59.40
2023-01-29T19:24:57.843Z,59.30
2023-01-29T19:29:03.920Z,59.20
2023-01-29T19:33:06.969Z,59.30
2023-01-29T19:37:09.714Z,59.40
2023-01-29T19:41:12.507Z,59.80
2023-01-29T19:45:15.981Z,59.90
2023-01-29T19:49:19.061Z,59.80
2023-01-29T19:53:23.561Z,60.30
2023-01-29T19:57:31.351Z,60.30
2023-01-29T20:01:34.675Z,60.70
2023-01-29T20:05:37.601Z,60.70
2023-01-29T20:09:41.537Z,60.70
2023-01-29T20:13:47.087Z,60.60
2023-01-29T20:17:50.261Z,60.50
2023-01-29T20:21:53.445Z,60.50
2023-01-29T20:26:00.631Z,60.50
2023-01-29T20:30:04.285Z,60.50
2023-01-29T20:34:11.266Z,60.90
2023-01-29T20:38:15.405Z,61.00
2023-01-29T20:42:27.595Z,61.30
2023-01-29T20:46:30.498Z,61.40
2023-01-29T20:50:34.600Z,61.30
2023-01-29T20:54:37.454Z,61.60
2023-01-29T20:58:43.680Z,61.60
2023-01-29T21:02:55.853Z,61.60
2023-01-29T21:07:07.283Z,61.50
2023-01-29T21:11:11.681Z,61.50
2023-01-29T21:15:20.643Z,61.60
2023-01-29T21:20:09.540Z,61.90
2023-01-29T21:24:31.267Z,62.10
2023-01-29T21:28:36.668Z,62.40
2023-01-29T21:32:39.555Z,62.60
2023-01-29T21:36:42.430Z,63.10
2023-01-29T21:40:45.250Z,63.10
2023-01-29T21:44:48.330Z,63.30
2023-01-29T21:48:51.651Z,63.70
2023-01-29T21:52:54.638Z,64.00
2023-01-29T21:56:57.593Z,64.00
2023-01-29T22:01:11.355Z,63.90
2023-01-29T22:05:23.709Z,64.20
2023-01-29T22:09:26.922Z,64.40
2023-01-29T22:13:30.095Z,64.30
2023-01-29T22:17:33.100Z,64.30
2023-01-29T22:33:10.435Z,64.30
2023-01-29T22:37:13.267Z,64.50
2023-01-29T22:41:18.997Z,64.50
2023-01-29T22:45:23.069Z,64.50
2023-01-29T22:49:30.090Z,64.80
2023-01-29T22:53:33.091Z,64.90
2023-01-29T22:57:38.884Z,64.80
2023-01-29T23:01:44.851Z,65.00
2023-01-29T23:05:51.020Z,65.10
2023-01-29T23:09:58.857Z,65.00
2023-01-29T23:14:05.360Z,65.20
2023-01-29T23:18:09.103Z,65.20
2023-01-29T23:22:14.180Z,65.20
2023-01-29T23:26:36.755Z,65.60
2023-01-29T23:30:40.067Z,65.50
2023-01-29T23:34:43.104Z,65.30
2023-01-29T23:38:46.063Z,65.40
2023-01-29T23:42:49.268Z,65.50
2023-01-29T23:46:52.269Z,65.50
2023-01-29T23:50:57.135Z,65.60
2023-01-29T23:55:05.758Z,65.70
2023-01-29T23:59:10.860Z,65.80
